Kezdőlap
METAR-TAF:

METAR-TAF

Repülőterek :

Glencoe Municipal Airport (Vernon Perschau Field)

Glencoe, Minnesota, Amerikai Egyesült Államok

földrajzi szélesség: 44-45-22N, földrajzi hosszúság: 094-04-52W, magasság: 302 m

Jelenlegi meteorológiai megfigyelések

A jelentés 4 perccel ezelõtt készült, 08:16 UTC
Nyugat-északnyugati szél 5 kt
Hőmérséklet -17°C
Páratartalom 71%
Légköri nyomás 1036 hPa
Látótávolság: 4.0 km
Borult 2600 lábon
enyhe havazás

METAR: KGYL 200816Z AUTO 29005KT 2 1/2SM -SN OVC026 M17/M21 A3059 RMK AO2 T11701214

Idő: 02:20 (08:20 UTC)


TAF: hiányzik

Meteorológiai megfigyelések és előrejelzések több, mint 4000 repülőtéren (METAR és TAF jelentéseket).

A térképen piros és sárga pontok jelzik az elérhető meteorológiai állomásokat.

Mozgassa az egeret a pont fölött, hogy megjelenjen az állomás neve.

Azután kattintson az időjárási megfigyelések és előrejelzések megtekintéséhez.

A térkép megváltoztatása: kattintson a fekete keresztel jelölt zöld gombra ráközelítéshez, a vonallal jelölt zöld gombra távolításhoz, vagy a zöld nyilakra a szomszédos térképek eléréséhez.


METAR-TAF: